Terminal Aerodrome Forecast
Issued by NWS

Home | Current Version | Previous Version | Text Only | Print | Product List | Glossary On
Versions: 1 2 3 4 5 6 7 8 9 10 11 12 13 14 15 16 17 18 19 20 21 22 23 24
000
FTUS43 KDMX 020213 AAA
TAFOTM
TAF AMD
KOTM 020213Z 0202/0224 36008KT 6SM BR VCSH SCT008 BKN015 OVC025
      TEMPO 0202/0205 3SM BR BKN008
     FM020500 36005KT 3SM BR BKN007 OVC015
     FM021500 01008KT 6SM BR SCT025 BKN040=

USA.gov is the U.S. government's official web portal to all federal, state and local government web resources and services.